sensor_id;sensor_type;location;lat;lon;timestamp;P1;durP1;ratioP1;P2;durP2;ratioP2
69434;SDS011;56625;54.322;18.582;2023-11-18T00:00:32;14.50;;;5.60;;
69434;SDS011;56625;54.322;18.582;2023-11-18T00:03:20;14.50;;;5.70;;
69434;SDS011;56625;54.322;18.582;2023-11-18T00:05:49;13.10;;;5.90;;
69434;SDS011;56625;54.322;18.582;2023-11-18T00:08:17;13.40;;;5.80;;
69434;SDS011;56625;54.322;18.582;2023-11-18T00:10:45;16.00;;;6.60;;
69434;SDS011;56625;54.322;18.582;2023-11-18T00:13:13;12.30;;;5.90;;
69434;SDS011;56625;54.322;18.582;2023-11-18T00:15:41;13.80;;;5.80;;
69434;SDS011;56625;54.322;18.582;2023-11-18T00:18:10;13.60;;;6.00;;
69434;SDS011;56625;54.322;18.582;2023-11-18T00:20:39;14.40;;;5.90;;
69434;SDS011;56625;54.322;18.582;2023-11-18T00:23:07;13.30;;;5.60;;
69434;SDS011;56625;54.322;18.582;2023-11-18T00:25:35;11.30;;;4.80;;
69434;SDS011;56625;54.322;18.582;2023-11-18T00:28:04;14.90;;;5.60;;
69434;SDS011;56625;54.322;18.582;2023-11-18T00:30:34;13.00;;;5.60;;
69434;SDS011;56625;54.322;18.582;2023-11-18T00:33:03;13.80;;;6.00;;
69434;SDS011;56625;54.322;18.582;2023-11-18T00:35:31;13.60;;;5.70;;
69434;SDS011;56625;54.322;18.582;2023-11-18T00:38:01;13.50;;;5.80;;
69434;SDS011;56625;54.322;18.582;2023-11-18T00:40:30;11.50;;;4.90;;
69434;SDS011;56625;54.322;18.582;2023-11-18T00:42:59;11.80;;;4.80;;
69434;SDS011;56625;54.322;18.582;2023-11-18T00:45:27;11.90;;;5.30;;
69434;SDS011;56625;54.322;18.582;2023-11-18T00:47:56;12.00;;;5.30;;
69434;SDS011;56625;54.322;18.582;2023-11-18T00:50:24;12.80;;;4.70;;
69434;SDS011;56625;54.322;18.582;2023-11-18T00:52:52;14.40;;;5.10;;
69434;SDS011;56625;54.322;18.582;2023-11-18T00:55:21;12.00;;;4.90;;
69434;SDS011;56625;54.322;18.582;2023-11-18T00:57:49;13.80;;;6.10;;
69434;SDS011;56625;54.322;18.582;2023-11-18T01:00:17;15.10;;;6.10;;
69434;SDS011;56625;54.322;18.582;2023-11-18T01:02:49;13.10;;;5.50;;
69434;SDS011;56625;54.322;18.582;2023-11-18T01:05:18;13.80;;;4.90;;
69434;SDS011;56625;54.322;18.582;2023-11-18T01:07:46;14.50;;;6.40;;
69434;SDS011;56625;54.322;18.582;2023-11-18T01:10:14;12.90;;;5.60;;
69434;SDS011;56625;54.322;18.582;2023-11-18T01:12:42;12.80;;;5.80;;
69434;SDS011;56625;54.322;18.582;2023-11-18T01:15:13;12.40;;;5.10;;
69434;SDS011;56625;54.322;18.582;2023-11-18T01:17:42;14.40;;;5.80;;
69434;SDS011;56625;54.322;18.582;2023-11-18T01:20:11;14.00;;;5.50;;
69434;SDS011;56625;54.322;18.582;2023-11-18T01:22:41;14.00;;;5.60;;
69434;SDS011;56625;54.322;18.582;2023-11-18T01:25:11;14.30;;;5.80;;
69434;SDS011;56625;54.322;18.582;2023-11-18T01:27:39;13.40;;;5.70;;
69434;SDS011;56625;54.322;18.582;2023-11-18T01:30:07;13.60;;;5.70;;
69434;SDS011;56625;54.322;18.582;2023-11-18T01:32:37;12.50;;;5.20;;
69434;SDS011;56625;54.322;18.582;2023-11-18T01:35:08;12.20;;;5.30;;
69434;SDS011;56625;54.322;18.582;2023-11-18T01:37:39;12.60;;;5.50;;
69434;SDS011;56625;54.322;18.582;2023-11-18T01:40:07;12.40;;;5.30;;
69434;SDS011;56625;54.322;18.582;2023-11-18T01:42:36;11.30;;;5.10;;
69434;SDS011;56625;54.322;18.582;2023-11-18T01:45:05;13.20;;;5.20;;
69434;SDS011;56625;54.322;18.582;2023-11-18T01:47:36;13.30;;;5.20;;
69434;SDS011;56625;54.322;18.582;2023-11-18T01:50:07;11.90;;;5.10;;
69434;SDS011;56625;54.322;18.582;2023-11-18T01:52:39;12.20;;;5.00;;
69434;SDS011;56625;54.322;18.582;2023-11-18T01:55:13;14.20;;;5.40;;
69434;SDS011;56625;54.322;18.582;2023-11-18T01:57:41;12.40;;;5.50;;
69434;SDS011;56625;54.322;18.582;2023-11-18T02:00:12;13.40;;;5.20;;
69434;SDS011;56625;54.322;18.582;2023-11-18T02:02:41;13.20;;;5.60;;
69434;SDS011;56625;54.322;18.582;2023-11-18T02:05:11;13.40;;;5.40;;
69434;SDS011;56625;54.322;18.582;2023-11-18T02:07:40;14.60;;;6.00;;
69434;SDS011;56625;54.322;18.582;2023-11-18T02:10:09;12.60;;;5.40;;
69434;SDS011;56625;54.322;18.582;2023-11-18T02:15:17;13.20;;;4.90;;
69434;SDS011;56625;54.322;18.582;2023-11-18T02:17:47;11.50;;;5.30;;
69434;SDS011;56625;54.322;18.582;2023-11-18T02:20:17;14.60;;;5.80;;
69434;SDS011;56625;54.322;18.582;2023-11-18T02:22:49;14.50;;;5.20;;
69434;SDS011;56625;54.322;18.582;2023-11-18T02:25:18;11.90;;;5.00;;
69434;SDS011;56625;54.322;18.582;2023-11-18T02:27:46;12.00;;;5.10;;
69434;SDS011;56625;54.322;18.582;2023-11-18T02:30:15;10.30;;;4.30;;
69434;SDS011;56625;54.322;18.582;2023-11-18T02:33:00;13.70;;;5.20;;
69434;SDS011;56625;54.322;18.582;2023-11-18T02:35:40;13.20;;;4.80;;
69434;SDS011;56625;54.322;18.582;2023-11-18T02:38:19;12.60;;;5.10;;
69434;SDS011;56625;54.322;18.582;2023-11-18T02:40:56;11.30;;;4.80;;
69434;SDS011;56625;54.322;18.582;2023-11-18T02:43:27;11.70;;;4.70;;
69434;SDS011;56625;54.322;18.582;2023-11-18T02:45:57;11.20;;;4.20;;
69434;SDS011;56625;54.322;18.582;2023-11-18T02:48:26;10.20;;;4.50;;
69434;SDS011;56625;54.322;18.582;2023-11-18T02:50:56;10.10;;;4.30;;
69434;SDS011;56625;54.322;18.582;2023-11-18T02:53:24;11.90;;;4.60;;
69434;SDS011;56625;54.322;18.582;2023-11-18T02:55:53;13.20;;;4.80;;
69434;SDS011;56625;54.322;18.582;2023-11-18T02:58:21;10.10;;;4.20;;
69434;SDS011;56625;54.322;18.582;2023-11-18T03:00:49;10.80;;;4.20;;
69434;SDS011;56625;54.322;18.582;2023-11-18T03:03:17;10.20;;;4.10;;
69434;SDS011;56625;54.322;18.582;2023-11-18T03:05:46;11.40;;;3.90;;
69434;SDS011;56625;54.322;18.582;2023-11-18T03:08:16;11.30;;;4.50;;
69434;SDS011;56625;54.322;18.582;2023-11-18T03:10:44;11.20;;;4.60;;
69434;SDS011;56625;54.322;18.582;2023-11-18T03:13:12;12.00;;;4.40;;
69434;SDS011;56625;54.322;18.582;2023-11-18T03:15:40;11.20;;;4.10;;
69434;SDS011;56625;54.322;18.582;2023-11-18T03:18:08;12.10;;;4.50;;
69434;SDS011;56625;54.322;18.582;2023-11-18T03:20:36;9.70;;;4.00;;
69434;SDS011;56625;54.322;18.582;2023-11-18T03:23:06;11.90;;;4.80;;
69434;SDS011;56625;54.322;18.582;2023-11-18T03:25:37;11.00;;;4.00;;
69434;SDS011;56625;54.322;18.582;2023-11-18T03:28:06;10.80;;;4.30;;
69434;SDS011;56625;54.322;18.582;2023-11-18T03:30:35;10.60;;;4.70;;
69434;SDS011;56625;54.322;18.582;2023-11-18T03:33:04;12.40;;;5.40;;
69434;SDS011;56625;54.322;18.582;2023-11-18T03:35:33;13.20;;;6.10;;
69434;SDS011;56625;54.322;18.582;2023-11-18T03:38:01;14.20;;;5.70;;
69434;SDS011;56625;54.322;18.582;2023-11-18T03:40:29;13.30;;;5.10;;
69434;SDS011;56625;54.322;18.582;2023-11-18T03:42:57;13.70;;;5.00;;
69434;SDS011;56625;54.322;18.582;2023-11-18T03:45:26;13.10;;;5.70;;
69434;SDS011;56625;54.322;18.582;2023-11-18T03:47:54;11.40;;;5.00;;
69434;SDS011;56625;54.322;18.582;2023-11-18T03:50:24;11.70;;;4.70;;
69434;SDS011;56625;54.322;18.582;2023-11-18T03:52:52;9.90;;;3.80;;
69434;SDS011;56625;54.322;18.582;2023-11-18T03:55:20;10.60;;;3.90;;
69434;SDS011;56625;54.322;18.582;2023-11-18T03:57:48;9.70;;;4.00;;
69434;SDS011;56625;54.322;18.582;2023-11-18T04:00:16;10.00;;;3.80;;
69434;SDS011;56625;54.322;18.582;2023-11-18T04:02:45;9.70;;;3.70;;
69434;SDS011;56625;54.322;18.582;2023-11-18T04:05:14;8.90;;;3.80;;
69434;SDS011;56625;54.322;18.582;2023-11-18T04:07:42;11.20;;;4.50;;
69434;SDS011;56625;54.322;18.582;2023-11-18T04:10:10;12.60;;;4.70;;
69434;SDS011;56625;54.322;18.582;2023-11-18T04:12:38;12.10;;;4.40;;
69434;SDS011;56625;54.322;18.582;2023-11-18T04:15:06;10.90;;;4.60;;
69434;SDS011;56625;54.322;18.582;2023-11-18T04:17:35;11.10;;;4.60;;
69434;SDS011;56625;54.322;18.582;2023-11-18T04:20:04;10.50;;;4.60;;
69434;SDS011;56625;54.322;18.582;2023-11-18T04:22:42;11.30;;;4.50;;
69434;SDS011;56625;54.322;18.582;2023-11-18T04:25:11;11.30;;;3.90;;
69434;SDS011;56625;54.322;18.582;2023-11-18T04:27:40;9.10;;;3.70;;
69434;SDS011;56625;54.322;18.582;2023-11-18T04:30:13;9.80;;;3.90;;
69434;SDS011;56625;54.322;18.582;2023-11-18T04:32:42;10.90;;;4.00;;
69434;SDS011;56625;54.322;18.582;2023-11-18T04:35:11;10.70;;;4.00;;
69434;SDS011;56625;54.322;18.582;2023-11-18T04:37:40;9.80;;;3.70;;
69434;SDS011;56625;54.322;18.582;2023-11-18T04:40:11;9.80;;;3.90;;
69434;SDS011;56625;54.322;18.582;2023-11-18T04:42:39;10.30;;;3.90;;
69434;SDS011;56625;54.322;18.582;2023-11-18T04:45:08;9.80;;;3.50;;
69434;SDS011;56625;54.322;18.582;2023-11-18T04:47:39;10.40;;;4.10;;
69434;SDS011;56625;54.322;18.582;2023-11-18T04:50:10;10.50;;;3.90;;
69434;SDS011;56625;54.322;18.582;2023-11-18T04:52:38;10.50;;;3.80;;
69434;SDS011;56625;54.322;18.582;2023-11-18T04:55:06;12.10;;;4.20;;
69434;SDS011;56625;54.322;18.582;2023-11-18T04:57:38;14.20;;;5.10;;
69434;SDS011;56625;54.322;18.582;2023-11-18T05:00:07;11.00;;;4.30;;
69434;SDS011;56625;54.322;18.582;2023-11-18T05:02:39;10.80;;;4.40;;
69434;SDS011;56625;54.322;18.582;2023-11-18T05:05:09;11.00;;;4.40;;
69434;SDS011;56625;54.322;18.582;2023-11-18T05:07:37;13.60;;;4.80;;
69434;SDS011;56625;54.322;18.582;2023-11-18T05:10:06;12.70;;;4.30;;
69434;SDS011;56625;54.322;18.582;2023-11-18T05:12:37;10.80;;;4.30;;
69434;SDS011;56625;54.322;18.582;2023-11-18T05:15:06;10.20;;;4.10;;
69434;SDS011;56625;54.322;18.582;2023-11-18T05:17:37;11.50;;;4.60;;
69434;SDS011;56625;54.322;18.582;2023-11-18T05:20:06;12.00;;;4.50;;
69434;SDS011;56625;54.322;18.582;2023-11-18T05:22:38;12.70;;;5.20;;
69434;SDS011;56625;54.322;18.582;2023-11-18T05:25:07;10.40;;;3.80;;
69434;SDS011;56625;54.322;18.582;2023-11-18T05:27:36;10.70;;;4.20;;
69434;SDS011;56625;54.322;18.582;2023-11-18T05:30:04;10.70;;;4.20;;
69434;SDS011;56625;54.322;18.582;2023-11-18T05:32:33;11.60;;;4.30;;
69434;SDS011;56625;54.322;18.582;2023-11-18T05:35:03;10.20;;;4.30;;
69434;SDS011;56625;54.322;18.582;2023-11-18T05:37:32;10.70;;;4.40;;
69434;SDS011;56625;54.322;18.582;2023-11-18T05:40:04;11.60;;;4.50;;
69434;SDS011;56625;54.322;18.582;2023-11-18T05:42:37;11.60;;;4.50;;
69434;SDS011;56625;54.322;18.582;2023-11-18T05:45:07;10.80;;;3.70;;
69434;SDS011;56625;54.322;18.582;2023-11-18T05:47:38;10.90;;;4.50;;
69434;SDS011;56625;54.322;18.582;2023-11-18T05:50:07;11.20;;;4.50;;
69434;SDS011;56625;54.322;18.582;2023-11-18T05:52:35;11.80;;;4.30;;
69434;SDS011;56625;54.322;18.582;2023-11-18T05:55:04;11.40;;;4.10;;
69434;SDS011;56625;54.322;18.582;2023-11-18T05:57:33;12.90;;;4.80;;
69434;SDS011;56625;54.322;18.582;2023-11-18T06:00:03;11.70;;;4.90;;
69434;SDS011;56625;54.322;18.582;2023-11-18T06:02:33;12.50;;;5.40;;
69434;SDS011;56625;54.322;18.582;2023-11-18T06:05:04;11.70;;;4.10;;
69434;SDS011;56625;54.322;18.582;2023-11-18T06:07:32;12.40;;;4.50;;
69434;SDS011;56625;54.322;18.582;2023-11-18T06:10:02;12.80;;;4.80;;
69434;SDS011;56625;54.322;18.582;2023-11-18T06:12:33;12.10;;;5.10;;
69434;SDS011;56625;54.322;18.582;2023-11-18T06:15:01;14.80;;;5.20;;
69434;SDS011;56625;54.322;18.582;2023-11-18T06:17:29;14.20;;;5.20;;
69434;SDS011;56625;54.322;18.582;2023-11-18T06:19:57;13.90;;;5.70;;
69434;SDS011;56625;54.322;18.582;2023-11-18T06:22:25;12.30;;;5.70;;
69434;SDS011;56625;54.322;18.582;2023-11-18T06:24:53;13.60;;;5.30;;
69434;SDS011;56625;54.322;18.582;2023-11-18T06:27:21;12.80;;;5.30;;
69434;SDS011;56625;54.322;18.582;2023-11-18T06:29:52;10.70;;;4.30;;
69434;SDS011;56625;54.322;18.582;2023-11-18T06:32:23;12.80;;;5.60;;
69434;SDS011;56625;54.322;18.582;2023-11-18T06:34:53;14.60;;;5.20;;
69434;SDS011;56625;54.322;18.582;2023-11-18T06:37:21;13.70;;;5.40;;
69434;SDS011;56625;54.322;18.582;2023-11-18T06:39:49;12.60;;;5.40;;
69434;SDS011;56625;54.322;18.582;2023-11-18T06:42:18;12.10;;;4.90;;
69434;SDS011;56625;54.322;18.582;2023-11-18T06:44:46;12.10;;;5.10;;
69434;SDS011;56625;54.322;18.582;2023-11-18T06:47:15;12.60;;;5.00;;
69434;SDS011;56625;54.322;18.582;2023-11-18T06:49:46;13.70;;;5.60;;
69434;SDS011;56625;54.322;18.582;2023-11-18T06:52:15;12.10;;;5.40;;
69434;SDS011;56625;54.322;18.582;2023-11-18T06:54:43;12.20;;;5.40;;
69434;SDS011;56625;54.322;18.582;2023-11-18T06:57:11;12.30;;;5.20;;
69434;SDS011;56625;54.322;18.582;2023-11-18T06:59:40;12.60;;;4.80;;
69434;SDS011;56625;54.322;18.582;2023-11-18T07:02:08;11.90;;;5.10;;
69434;SDS011;56625;54.322;18.582;2023-11-18T07:04:38;11.80;;;5.00;;
69434;SDS011;56625;54.322;18.582;2023-11-18T07:07:06;12.50;;;5.10;;
69434;SDS011;56625;54.322;18.582;2023-11-18T07:09:36;14.50;;;5.00;;
69434;SDS011;56625;54.322;18.582;2023-11-18T07:12:05;11.80;;;5.20;;
69434;SDS011;56625;54.322;18.582;2023-11-18T07:14:33;12.40;;;5.20;;
69434;SDS011;56625;54.322;18.582;2023-11-18T07:17:01;14.90;;;4.80;;
69434;SDS011;56625;54.322;18.582;2023-11-18T07:19:29;13.30;;;5.80;;
69434;SDS011;56625;54.322;18.582;2023-11-18T07:21:57;17.00;;;6.30;;
69434;SDS011;56625;54.322;18.582;2023-11-18T07:24:25;14.70;;;6.20;;
69434;SDS011;56625;54.322;18.582;2023-11-18T07:26:53;15.80;;;5.90;;
69434;SDS011;56625;54.322;18.582;2023-11-18T07:29:22;15.50;;;6.10;;
69434;SDS011;56625;54.322;18.582;2023-11-18T07:31:51;13.30;;;5.30;;
69434;SDS011;56625;54.322;18.582;2023-11-18T07:34:19;15.20;;;6.40;;
69434;SDS011;56625;54.322;18.582;2023-11-18T07:36:47;15.40;;;6.20;;
69434;SDS011;56625;54.322;18.582;2023-11-18T07:39:16;14.10;;;6.20;;
69434;SDS011;56625;54.322;18.582;2023-11-18T07:41:51;14.20;;;5.70;;
69434;SDS011;56625;54.322;18.582;2023-11-18T07:44:20;15.90;;;6.00;;
69434;SDS011;56625;54.322;18.582;2023-11-18T07:46:49;16.50;;;6.40;;
69434;SDS011;56625;54.322;18.582;2023-11-18T07:49:17;14.90;;;5.90;;
69434;SDS011;56625;54.322;18.582;2023-11-18T07:51:45;19.10;;;7.30;;
69434;SDS011;56625;54.322;18.582;2023-11-18T07:54:13;20.20;;;7.20;;
69434;SDS011;56625;54.322;18.582;2023-11-18T07:56:41;14.60;;;6.10;;
69434;SDS011;56625;54.322;18.582;2023-11-18T07:59:09;18.00;;;7.60;;
69434;SDS011;56625;54.322;18.582;2023-11-18T08:01:40;15.50;;;6.30;;
69434;SDS011;56625;54.322;18.582;2023-11-18T08:04:12;15.60;;;6.80;;
69434;SDS011;56625;54.322;18.582;2023-11-18T08:06:41;18.70;;;7.10;;
69434;SDS011;56625;54.322;18.582;2023-11-18T08:09:10;15.40;;;6.50;;
69434;SDS011;56625;54.322;18.582;2023-11-18T08:11:41;17.70;;;6.60;;
69434;SDS011;56625;54.322;18.582;2023-11-18T08:14:09;16.90;;;7.00;;
69434;SDS011;56625;54.322;18.582;2023-11-18T08:16:37;16.60;;;7.10;;
69434;SDS011;56625;54.322;18.582;2023-11-18T08:19:06;19.70;;;7.80;;
69434;SDS011;56625;54.322;18.582;2023-11-18T08:21:37;20.50;;;8.30;;
69434;SDS011;56625;54.322;18.582;2023-11-18T08:24:09;18.40;;;7.00;;
69434;SDS011;56625;54.322;18.582;2023-11-18T08:26:38;17.00;;;6.70;;
69434;SDS011;56625;54.322;18.582;2023-11-18T08:29:06;17.20;;;7.10;;
69434;SDS011;56625;54.322;18.582;2023-11-18T08:31:38;17.10;;;6.90;;
69434;SDS011;56625;54.322;18.582;2023-11-18T08:34:07;18.70;;;7.60;;
69434;SDS011;56625;54.322;18.582;2023-11-18T08:36:38;17.00;;;7.10;;
69434;SDS011;56625;54.322;18.582;2023-11-18T08:39:06;17.70;;;7.50;;
69434;SDS011;56625;54.322;18.582;2023-11-18T08:41:39;17.20;;;7.00;;
69434;SDS011;56625;54.322;18.582;2023-11-18T08:44:07;17.80;;;7.50;;
69434;SDS011;56625;54.322;18.582;2023-11-18T08:46:52;16.90;;;7.40;;
69434;SDS011;56625;54.322;18.582;2023-11-18T08:49:20;16.20;;;7.30;;
69434;SDS011;56625;54.322;18.582;2023-11-18T08:51:51;16.80;;;7.20;;
69434;SDS011;56625;54.322;18.582;2023-11-18T08:54:24;19.00;;;7.80;;
69434;SDS011;56625;54.322;18.582;2023-11-18T08:57:05;19.40;;;7.80;;
69434;SDS011;56625;54.322;18.582;2023-11-18T08:59:51;17.80;;;7.50;;
69434;SDS011;56625;54.322;18.582;2023-11-18T09:02:20;19.80;;;8.40;;
69434;SDS011;56625;54.322;18.582;2023-11-18T09:04:52;19.70;;;8.70;;
69434;SDS011;56625;54.322;18.582;2023-11-18T09:07:23;21.70;;;9.00;;
69434;SDS011;56625;54.322;18.582;2023-11-18T09:09:52;18.50;;;7.40;;
69434;SDS011;56625;54.322;18.582;2023-11-18T09:12:21;15.80;;;7.20;;
69434;SDS011;56625;54.322;18.582;2023-11-18T09:14:49;16.90;;;8.00;;
69434;SDS011;56625;54.322;18.582;2023-11-18T09:17:19;19.50;;;7.60;;
69434;SDS011;56625;54.322;18.582;2023-11-18T09:19:50;17.10;;;8.40;;
69434;SDS011;56625;54.322;18.582;2023-11-18T09:22:20;23.00;;;9.30;;
69434;SDS011;56625;54.322;18.582;2023-11-18T09:24:49;21.70;;;8.90;;
69434;SDS011;56625;54.322;18.582;2023-11-18T09:27:18;18.90;;;8.00;;
69434;SDS011;56625;54.322;18.582;2023-11-18T09:29:46;20.50;;;8.50;;
69434;SDS011;56625;54.322;18.582;2023-11-18T09:32:14;21.40;;;9.50;;
69434;SDS011;56625;54.322;18.582;2023-11-18T09:34:42;19.70;;;8.60;;
69434;SDS011;56625;54.322;18.582;2023-11-18T09:37:10;19.30;;;8.70;;
69434;SDS011;56625;54.322;18.582;2023-11-18T09:39:38;20.80;;;8.80;;
69434;SDS011;56625;54.322;18.582;2023-11-18T09:42:12;21.60;;;8.80;;
69434;SDS011;56625;54.322;18.582;2023-11-18T09:44:42;18.60;;;7.70;;
69434;SDS011;56625;54.322;18.582;2023-11-18T09:47:11;15.40;;;6.00;;
69434;SDS011;56625;54.322;18.582;2023-11-18T09:49:45;21.20;;;8.00;;
69434;SDS011;56625;54.322;18.582;2023-11-18T09:52:18;18.00;;;8.10;;
69434;SDS011;56625;54.322;18.582;2023-11-18T09:55:03;21.60;;;9.10;;
69434;SDS011;56625;54.322;18.582;2023-11-18T09:57:51;21.30;;;9.50;;
69434;SDS011;56625;54.322;18.582;2023-11-18T10:00:28;18.10;;;7.60;;
69434;SDS011;56625;54.322;18.582;2023-11-18T10:03:00;21.90;;;9.40;;
69434;SDS011;56625;54.322;18.582;2023-11-18T10:05:29;22.40;;;9.50;;
69434;SDS011;56625;54.322;18.582;2023-11-18T10:07:59;17.50;;;6.40;;
69434;SDS011;56625;54.322;18.582;2023-11-18T10:10:27;17.40;;;7.60;;
69434;SDS011;56625;54.322;18.582;2023-11-18T10:13:05;18.90;;;8.00;;
69434;SDS011;56625;54.322;18.582;2023-11-18T10:15:52;16.70;;;7.30;;
69434;SDS011;56625;54.322;18.582;2023-11-18T10:18:22;16.10;;;6.60;;
69434;SDS011;56625;54.322;18.582;2023-11-18T10:20:51;17.50;;;7.40;;
69434;SDS011;56625;54.322;18.582;2023-11-18T10:23:22;18.80;;;8.20;;
69434;SDS011;56625;54.322;18.582;2023-11-18T10:28:25;17.00;;;7.70;;
69434;SDS011;56625;54.322;18.582;2023-11-18T10:31:02;15.00;;;6.30;;
69434;SDS011;56625;54.322;18.582;2023-11-18T10:33:37;19.10;;;7.90;;
69434;SDS011;56625;54.322;18.582;2023-11-18T10:36:06;18.80;;;8.30;;
69434;SDS011;56625;54.322;18.582;2023-11-18T10:38:51;16.20;;;6.90;;
69434;SDS011;56625;54.322;18.582;2023-11-18T10:41:24;18.80;;;7.10;;
69434;SDS011;56625;54.322;18.582;2023-11-18T10:44:06;15.50;;;6.90;;
69434;SDS011;56625;54.322;18.582;2023-11-18T10:46:53;14.00;;;5.40;;
69434;SDS011;56625;54.322;18.582;2023-11-18T10:49:21;11.60;;;4.70;;
69434;SDS011;56625;54.322;18.582;2023-11-18T10:51:53;10.40;;;4.20;;
69434;SDS011;56625;54.322;18.582;2023-11-18T10:54:21;12.70;;;5.40;;
69434;SDS011;56625;54.322;18.582;2023-11-18T10:56:49;12.20;;;4.50;;
69434;SDS011;56625;54.322;18.582;2023-11-18T10:59:18;11.70;;;5.10;;
69434;SDS011;56625;54.322;18.582;2023-11-18T11:01:46;13.60;;;5.10;;
69434;SDS011;56625;54.322;18.582;2023-11-18T11:04:18;10.00;;;3.70;;
69434;SDS011;56625;54.322;18.582;2023-11-18T11:06:50;10.20;;;3.60;;
69434;SDS011;56625;54.322;18.582;2023-11-18T11:09:26;10.10;;;4.20;;
69434;SDS011;56625;54.322;18.582;2023-11-18T11:12:10;13.20;;;5.30;;
69434;SDS011;56625;54.322;18.582;2023-11-18T11:14:54;14.50;;;6.00;;
69434;SDS011;56625;54.322;18.582;2023-11-18T11:17:28;14.50;;;5.50;;
69434;SDS011;56625;54.322;18.582;2023-11-18T11:20:06;14.30;;;5.90;;
69434;SDS011;56625;54.322;18.582;2023-11-18T11:29:02;14.40;;;5.90;;
69434;SDS011;56625;54.322;18.582;2023-11-18T11:31:41;13.80;;;5.10;;
69434;SDS011;56625;54.322;18.582;2023-11-18T11:34:19;14.80;;;5.30;;
69434;SDS011;56625;54.322;18.582;2023-11-18T11:36:54;13.40;;;5.20;;
69434;SDS011;56625;54.322;18.582;2023-11-18T11:39:26;13.30;;;5.40;;
69434;SDS011;56625;54.322;18.582;2023-11-18T11:41:57;13.40;;;5.70;;
69434;SDS011;56625;54.322;18.582;2023-11-18T11:44:27;14.90;;;6.10;;
69434;SDS011;56625;54.322;18.582;2023-11-18T11:46:59;11.00;;;4.10;;
69434;SDS011;56625;54.322;18.582;2023-11-18T11:49:41;12.50;;;5.10;;
69434;SDS011;56625;54.322;18.582;2023-11-18T11:52:22;11.80;;;4.90;;
69434;SDS011;56625;54.322;18.582;2023-11-18T11:55:00;13.10;;;4.70;;
69434;SDS011;56625;54.322;18.582;2023-11-18T11:57:40;11.80;;;4.00;;
69434;SDS011;56625;54.322;18.582;2023-11-18T12:00:11;13.60;;;5.10;;
69434;SDS011;56625;54.322;18.582;2023-11-18T12:02:50;15.60;;;6.30;;
69434;SDS011;56625;54.322;18.582;2023-11-18T12:05:26;14.20;;;5.60;;
69434;SDS011;56625;54.322;18.582;2023-11-18T12:07:55;14.00;;;5.30;;
69434;SDS011;56625;54.322;18.582;2023-11-18T12:10:30;13.10;;;4.70;;
69434;SDS011;56625;54.322;18.582;2023-11-18T12:13:10;14.10;;;5.40;;
69434;SDS011;56625;54.322;18.582;2023-11-18T12:15:52;17.90;;;7.00;;
69434;SDS011;56625;54.322;18.582;2023-11-18T12:18:33;15.80;;;6.60;;
69434;SDS011;56625;54.322;18.582;2023-11-18T12:21:04;18.30;;;7.00;;
69434;SDS011;56625;54.322;18.582;2023-11-18T12:23:32;16.60;;;6.90;;
69434;SDS011;56625;54.322;18.582;2023-11-18T12:26:38;17.70;;;6.20;;
69434;SDS011;56625;54.322;18.582;2023-11-18T12:29:31;15.70;;;6.00;;
69434;SDS011;56625;54.322;18.582;2023-11-18T12:32:02;14.30;;;4.80;;
69434;SDS011;56625;54.322;18.582;2023-11-18T12:34:49;14.90;;;6.30;;
69434;SDS011;56625;54.322;18.582;2023-11-18T12:46:47;18.20;;;6.80;;
69434;SDS011;56625;54.322;18.582;2023-11-18T12:49:41;18.30;;;7.50;;
69434;SDS011;56625;54.322;18.582;2023-11-18T12:52:11;19.90;;;7.70;;
69434;SDS011;56625;54.322;18.582;2023-11-18T12:54:47;15.90;;;6.80;;
69434;SDS011;56625;54.322;18.582;2023-11-18T12:57:22;19.20;;;7.80;;
69434;SDS011;56625;54.322;18.582;2023-11-18T12:59:54;17.40;;;7.20;;
69434;SDS011;56625;54.322;18.582;2023-11-18T13:02:22;17.70;;;6.70;;
69434;SDS011;56625;54.322;18.582;2023-11-18T13:04:51;16.20;;;7.00;;
69434;SDS011;56625;54.322;18.582;2023-11-18T13:07:20;13.90;;;6.20;;
69434;SDS011;56625;54.322;18.582;2023-11-18T13:09:50;14.80;;;6.20;;
69434;SDS011;56625;54.322;18.582;2023-11-18T13:12:18;14.80;;;6.40;;
69434;SDS011;56625;54.322;18.582;2023-11-18T13:14:48;14.00;;;6.00;;
69434;SDS011;56625;54.322;18.582;2023-11-18T13:17:17;16.40;;;6.10;;
69434;SDS011;56625;54.322;18.582;2023-11-18T13:19:45;13.50;;;5.80;;
69434;SDS011;56625;54.322;18.582;2023-11-18T13:22:15;15.30;;;5.90;;
69434;SDS011;56625;54.322;18.582;2023-11-18T13:24:46;13.90;;;5.60;;
69434;SDS011;56625;54.322;18.582;2023-11-18T13:27:19;13.40;;;6.00;;
69434;SDS011;56625;54.322;18.582;2023-11-18T13:29:48;16.50;;;6.10;;
69434;SDS011;56625;54.322;18.582;2023-11-18T13:32:19;14.40;;;5.50;;
69434;SDS011;56625;54.322;18.582;2023-11-18T13:34:53;12.20;;;4.80;;
69434;SDS011;56625;54.322;18.582;2023-11-18T13:37:23;15.60;;;5.40;;
69434;SDS011;56625;54.322;18.582;2023-11-18T13:39:54;14.10;;;5.70;;
69434;SDS011;56625;54.322;18.582;2023-11-18T13:42:25;16.20;;;5.50;;
69434;SDS011;56625;54.322;18.582;2023-11-18T13:45:00;14.10;;;6.30;;
69434;SDS011;56625;54.322;18.582;2023-11-18T13:47:36;18.50;;;7.40;;
69434;SDS011;56625;54.322;18.582;2023-11-18T13:50:08;15.80;;;6.10;;
69434;SDS011;56625;54.322;18.582;2023-11-18T13:52:38;15.30;;;6.40;;
69434;SDS011;56625;54.322;18.582;2023-11-18T13:55:07;17.00;;;7.10;;
69434;SDS011;56625;54.322;18.582;2023-11-18T13:57:36;18.90;;;7.10;;
69434;SDS011;56625;54.322;18.582;2023-11-18T14:00:05;18.40;;;7.20;;
69434;SDS011;56625;54.322;18.582;2023-11-18T14:02:43;15.50;;;6.50;;
69434;SDS011;56625;54.322;18.582;2023-11-18T14:05:18;18.50;;;7.60;;
69434;SDS011;56625;54.322;18.582;2023-11-18T14:07:47;19.80;;;8.00;;
69434;SDS011;56625;54.322;18.582;2023-11-18T14:10:16;18.20;;;7.80;;
69434;SDS011;56625;54.322;18.582;2023-11-18T14:13:07;18.40;;;7.90;;
69434;SDS011;56625;54.322;18.582;2023-11-18T14:15:41;16.80;;;7.30;;
69434;SDS011;56625;54.322;18.582;2023-11-18T14:18:12;17.00;;;6.50;;
69434;SDS011;56625;54.322;18.582;2023-11-18T14:20:42;21.30;;;9.20;;
69434;SDS011;56625;54.322;18.582;2023-11-18T14:23:11;22.50;;;9.20;;
69434;SDS011;56625;54.322;18.582;2023-11-18T14:25:39;22.50;;;9.40;;
69434;SDS011;56625;54.322;18.582;2023-11-18T14:28:07;20.70;;;9.20;;
69434;SDS011;56625;54.322;18.582;2023-11-18T14:30:38;23.80;;;9.10;;
69434;SDS011;56625;54.322;18.582;2023-11-18T14:33:08;23.40;;;9.70;;
69434;SDS011;56625;54.322;18.582;2023-11-18T14:35:36;22.00;;;8.70;;
69434;SDS011;56625;54.322;18.582;2023-11-18T14:38:05;19.20;;;8.70;;
69434;SDS011;56625;54.322;18.582;2023-11-18T14:40:36;21.20;;;9.00;;
69434;SDS011;56625;54.322;18.582;2023-11-18T14:43:08;22.10;;;9.60;;
69434;SDS011;56625;54.322;18.582;2023-11-18T14:45:36;21.50;;;9.30;;
69434;SDS011;56625;54.322;18.582;2023-11-18T14:48:05;20.80;;;8.30;;
69434;SDS011;56625;54.322;18.582;2023-11-18T14:50:33;21.10;;;9.00;;
69434;SDS011;56625;54.322;18.582;2023-11-18T14:53:02;22.80;;;8.90;;
69434;SDS011;56625;54.322;18.582;2023-11-18T14:55:31;22.00;;;9.70;;
69434;SDS011;56625;54.322;18.582;2023-11-18T14:58:00;22.70;;;10.10;;
69434;SDS011;56625;54.322;18.582;2023-11-18T15:00:29;23.10;;;10.40;;
69434;SDS011;56625;54.322;18.582;2023-11-18T15:03:00;24.80;;;10.70;;